sensor_id;sensor_type;location;lat;lon;timestamp;temperature;humidity
16384;DHT22;8301;51.440;6.610;2024-01-25T00:01:37;8.10;99.90
16384;DHT22;8301;51.440;6.610;2024-01-25T00:04:04;8.10;99.90
16384;DHT22;8301;51.440;6.610;2024-01-25T00:06:31;8.10;99.90
16384;DHT22;8301;51.440;6.610;2024-01-25T00:08:58;8.10;99.90
16384;DHT22;8301;51.440;6.610;2024-01-25T00:11:26;8.10;99.90
16384;DHT22;8301;51.440;6.610;2024-01-25T00:13:53;8.00;99.90
16384;DHT22;8301;51.440;6.610;2024-01-25T00:16:21;7.90;99.90
16384;DHT22;8301;51.440;6.610;2024-01-25T00:18:48;7.90;99.90
16384;DHT22;8301;51.440;6.610;2024-01-25T00:21:14;8.00;99.90
16384;DHT22;8301;51.440;6.610;2024-01-25T00:23:42;7.90;99.90
16384;DHT22;8301;51.440;6.610;2024-01-25T00:26:09;7.90;99.90
16384;DHT22;8301;51.440;6.610;2024-01-25T00:28:38;7.80;99.90
16384;DHT22;8301;51.440;6.610;2024-01-25T00:31:04;7.80;1.00
16384;DHT22;8301;51.440;6.610;2024-01-25T00:33:31;7.80;1.00
16384;DHT22;8301;51.440;6.610;2024-01-25T00:35:58;7.80;99.90
16384;DHT22;8301;51.440;6.610;2024-01-25T00:38:31;7.70;99.90
16384;DHT22;8301;51.440;6.610;2024-01-25T00:40:58;7.60;99.90
16384;DHT22;8301;51.440;6.610;2024-01-25T00:43:25;7.50;1.00
16384;DHT22;8301;51.440;6.610;2024-01-25T00:45:52;7.50;1.00
16384;DHT22;8301;51.440;6.610;2024-01-25T00:48:19;7.50;63.50
16384;DHT22;8301;51.440;6.610;2024-01-25T00:50:46;7.40;1.00
16384;DHT22;8301;51.440;6.610;2024-01-25T00:53:13;7.40;1.00
16384;DHT22;8301;51.440;6.610;2024-01-25T00:55:40;7.30;1.00
16384;DHT22;8301;51.440;6.610;2024-01-25T00:58:07;7.30;99.90
16384;DHT22;8301;51.440;6.610;2024-01-25T01:00:34;7.20;99.90
16384;DHT22;8301;51.440;6.610;2024-01-25T01:03:01;7.10;99.90
16384;DHT22;8301;51.440;6.610;2024-01-25T01:05:30;7.00;99.90
16384;DHT22;8301;51.440;6.610;2024-01-25T01:07:57;6.90;99.90
16384;DHT22;8301;51.440;6.610;2024-01-25T01:10:24;6.80;1.00
16384;DHT22;8301;51.440;6.610;2024-01-25T01:12:51;6.80;99.90
16384;DHT22;8301;51.440;6.610;2024-01-25T01:15:20;6.80;1.00
16384;DHT22;8301;51.440;6.610;2024-01-25T01:17:47;6.90;99.90
16384;DHT22;8301;51.440;6.610;2024-01-25T01:20:14;6.90;64.80
16384;DHT22;8301;51.440;6.610;2024-01-25T01:22:41;6.70;1.00
16384;DHT22;8301;51.440;6.610;2024-01-25T01:25:08;6.60;1.00
16384;DHT22;8301;51.440;6.610;2024-01-25T01:27:36;6.50;99.90
16384;DHT22;8301;51.440;6.610;2024-01-25T01:30:03;6.40;1.00
16384;DHT22;8301;51.440;6.610;2024-01-25T01:32:30;6.30;99.90
16384;DHT22;8301;51.440;6.610;2024-01-25T01:34:57;6.10;1.00
16384;DHT22;8301;51.440;6.610;2024-01-25T01:37:24;6.10;99.90
16384;DHT22;8301;51.440;6.610;2024-01-25T01:39:51;6.00;86.10
16384;DHT22;8301;51.440;6.610;2024-01-25T01:42:18;6.00;1.00
16384;DHT22;8301;51.440;6.610;2024-01-25T01:44:45;5.90;1.00
16384;DHT22;8301;51.440;6.610;2024-01-25T01:47:12;6.00;99.90
16384;DHT22;8301;51.440;6.610;2024-01-25T01:49:39;5.80;57.60
16384;DHT22;8301;51.440;6.610;2024-01-25T01:52:06;5.80;58.70
16384;DHT22;8301;51.440;6.610;2024-01-25T01:54:34;5.70;79.20
16384;DHT22;8301;51.440;6.610;2024-01-25T01:57:01;5.80;99.90
16384;DHT22;8301;51.440;6.610;2024-01-25T01:59:28;5.70;99.90
16384;DHT22;8301;51.440;6.610;2024-01-25T02:01:55;5.70;99.90
16384;DHT22;8301;51.440;6.610;2024-01-25T02:04:22;5.60;99.90
16384;DHT22;8301;51.440;6.610;2024-01-25T02:06:48;5.60;99.90
16384;DHT22;8301;51.440;6.610;2024-01-25T02:09:15;5.80;99.90
16384;DHT22;8301;51.440;6.610;2024-01-25T02:11:42;5.70;99.90
16384;DHT22;8301;51.440;6.610;2024-01-25T02:14:09;5.70;99.90
16384;DHT22;8301;51.440;6.610;2024-01-25T02:16:39;5.70;99.90
16384;DHT22;8301;51.440;6.610;2024-01-25T02:19:05;5.70;99.90
16384;DHT22;8301;51.440;6.610;2024-01-25T02:21:32;5.70;99.90
16384;DHT22;8301;51.440;6.610;2024-01-25T02:23:59;5.80;99.90
16384;DHT22;8301;51.440;6.610;2024-01-25T02:26:26;5.90;99.90
16384;DHT22;8301;51.440;6.610;2024-01-25T02:28:52;5.80;99.90
16384;DHT22;8301;51.440;6.610;2024-01-25T02:31:19;5.80;99.90
16384;DHT22;8301;51.440;6.610;2024-01-25T02:33:46;5.80;99.90
16384;DHT22;8301;51.440;6.610;2024-01-25T02:36:13;5.70;99.90
16384;DHT22;8301;51.440;6.610;2024-01-25T02:38:40;5.80;99.90
16384;DHT22;8301;51.440;6.610;2024-01-25T02:41:06;5.70;99.90
16384;DHT22;8301;51.440;6.610;2024-01-25T02:43:33;5.60;99.90
16384;DHT22;8301;51.440;6.610;2024-01-25T02:46:01;5.50;99.90
16384;DHT22;8301;51.440;6.610;2024-01-25T02:48:28;5.40;99.90
16384;DHT22;8301;51.440;6.610;2024-01-25T02:50:55;5.40;99.90
16384;DHT22;8301;51.440;6.610;2024-01-25T02:53:22;5.40;99.90
16384;DHT22;8301;51.440;6.610;2024-01-25T02:55:49;5.40;99.90
16384;DHT22;8301;51.440;6.610;2024-01-25T02:58:15;5.40;99.90
16384;DHT22;8301;51.440;6.610;2024-01-25T03:00:44;5.40;99.90
16384;DHT22;8301;51.440;6.610;2024-01-25T03:03:11;5.30;99.90
16384;DHT22;8301;51.440;6.610;2024-01-25T03:05:38;5.20;99.90
16384;DHT22;8301;51.440;6.610;2024-01-25T03:08:05;5.10;99.90
16384;DHT22;8301;51.440;6.610;2024-01-25T03:10:36;5.10;99.90
16384;DHT22;8301;51.440;6.610;2024-01-25T03:13:02;5.10;99.90
16384;DHT22;8301;51.440;6.610;2024-01-25T03:15:29;5.10;99.90
16384;DHT22;8301;51.440;6.610;2024-01-25T03:17:56;5.00;99.90
16384;DHT22;8301;51.440;6.610;2024-01-25T03:20:29;5.10;99.90
16384;DHT22;8301;51.440;6.610;2024-01-25T03:22:55;5.10;99.90
16384;DHT22;8301;51.440;6.610;2024-01-25T03:25:22;5.00;99.90
16384;DHT22;8301;51.440;6.610;2024-01-25T03:27:56;5.00;99.90
16384;DHT22;8301;51.440;6.610;2024-01-25T03:30:23;4.80;99.90
16384;DHT22;8301;51.440;6.610;2024-01-25T03:32:50;4.80;99.90
16384;DHT22;8301;51.440;6.610;2024-01-25T03:35:16;4.80;99.90
16384;DHT22;8301;51.440;6.610;2024-01-25T03:37:43;4.80;99.90
16384;DHT22;8301;51.440;6.610;2024-01-25T03:40:10;4.70;99.90
16384;DHT22;8301;51.440;6.610;2024-01-25T03:42:37;4.70;99.90
16384;DHT22;8301;51.440;6.610;2024-01-25T03:45:04;4.60;99.90
16384;DHT22;8301;51.440;6.610;2024-01-25T03:47:31;4.50;99.90
16384;DHT22;8301;51.440;6.610;2024-01-25T03:49:58;4.40;99.90
16384;DHT22;8301;51.440;6.610;2024-01-25T03:52:26;4.50;99.90
16384;DHT22;8301;51.440;6.610;2024-01-25T03:54:54;4.70;99.90
16384;DHT22;8301;51.440;6.610;2024-01-25T03:57:21;4.70;99.90
16384;DHT22;8301;51.440;6.610;2024-01-25T03:59:48;4.60;99.90
16384;DHT22;8301;51.440;6.610;2024-01-25T04:02:15;4.60;99.90
16384;DHT22;8301;51.440;6.610;2024-01-25T04:04:42;4.50;99.90
16384;DHT22;8301;51.440;6.610;2024-01-25T04:07:08;4.40;99.90
16384;DHT22;8301;51.440;6.610;2024-01-25T04:09:35;4.40;99.90
16384;DHT22;8301;51.440;6.610;2024-01-25T04:12:03;4.40;99.90
16384;DHT22;8301;51.440;6.610;2024-01-25T04:14:30;4.50;99.90
16384;DHT22;8301;51.440;6.610;2024-01-25T04:16:56;4.50;99.90
16384;DHT22;8301;51.440;6.610;2024-01-25T04:19:23;4.40;99.90
16384;DHT22;8301;51.440;6.610;2024-01-25T04:21:50;4.30;99.90
16384;DHT22;8301;51.440;6.610;2024-01-25T04:24:17;4.30;99.90
16384;DHT22;8301;51.440;6.610;2024-01-25T04:26:44;4.30;99.90
16384;DHT22;8301;51.440;6.610;2024-01-25T04:29:10;4.40;99.90
16384;DHT22;8301;51.440;6.610;2024-01-25T04:31:43;4.30;99.90
16384;DHT22;8301;51.440;6.610;2024-01-25T04:34:12;4.30;99.90
16384;DHT22;8301;51.440;6.610;2024-01-25T04:36:39;4.30;99.90
16384;DHT22;8301;51.440;6.610;2024-01-25T04:39:06;4.20;99.90
16384;DHT22;8301;51.440;6.610;2024-01-25T04:41:36;4.20;99.90
16384;DHT22;8301;51.440;6.610;2024-01-25T04:44:03;4.30;99.90
16384;DHT22;8301;51.440;6.610;2024-01-25T04:46:30;4.20;99.90
16384;DHT22;8301;51.440;6.610;2024-01-25T04:49:02;4.10;99.90
16384;DHT22;8301;51.440;6.610;2024-01-25T04:51:29;4.10;99.90
16384;DHT22;8301;51.440;6.610;2024-01-25T04:53:55;4.00;99.90
16384;DHT22;8301;51.440;6.610;2024-01-25T04:56:22;4.10;99.90
16384;DHT22;8301;51.440;6.610;2024-01-25T04:58:49;4.00;99.90
16384;DHT22;8301;51.440;6.610;2024-01-25T05:01:16;4.10;99.90
16384;DHT22;8301;51.440;6.610;2024-01-25T05:03:43;4.00;99.90
16384;DHT22;8301;51.440;6.610;2024-01-25T05:06:10;4.00;99.90
16384;DHT22;8301;51.440;6.610;2024-01-25T05:08:36;4.00;99.90
16384;DHT22;8301;51.440;6.610;2024-01-25T05:11:03;4.10;99.90
16384;DHT22;8301;51.440;6.610;2024-01-25T05:13:30;4.00;99.90
16384;DHT22;8301;51.440;6.610;2024-01-25T05:15:57;4.00;99.90
16384;DHT22;8301;51.440;6.610;2024-01-25T05:18:24;4.00;99.90
16384;DHT22;8301;51.440;6.610;2024-01-25T05:20:50;3.90;99.90
16384;DHT22;8301;51.440;6.610;2024-01-25T05:23:17;3.90;99.90
16384;DHT22;8301;51.440;6.610;2024-01-25T05:25:44;3.90;99.90
16384;DHT22;8301;51.440;6.610;2024-01-25T05:28:11;4.10;99.90
16384;DHT22;8301;51.440;6.610;2024-01-25T05:30:38;4.10;99.90
16384;DHT22;8301;51.440;6.610;2024-01-25T05:33:05;4.00;99.90
16384;DHT22;8301;51.440;6.610;2024-01-25T05:35:33;3.90;99.90
16384;DHT22;8301;51.440;6.610;2024-01-25T05:38:00;3.80;99.90
16384;DHT22;8301;51.440;6.610;2024-01-25T05:40:27;3.70;99.90
16384;DHT22;8301;51.440;6.610;2024-01-25T05:42:54;3.80;99.90
16384;DHT22;8301;51.440;6.610;2024-01-25T05:45:21;3.70;99.90
16384;DHT22;8301;51.440;6.610;2024-01-25T05:47:49;3.80;99.90
16384;DHT22;8301;51.440;6.610;2024-01-25T05:50:15;3.80;99.90
16384;DHT22;8301;51.440;6.610;2024-01-25T05:52:42;3.90;99.90
16384;DHT22;8301;51.440;6.610;2024-01-25T05:55:09;3.90;99.90
16384;DHT22;8301;51.440;6.610;2024-01-25T05:57:37;3.80;99.90
16384;DHT22;8301;51.440;6.610;2024-01-25T06:00:05;3.80;99.90
16384;DHT22;8301;51.440;6.610;2024-01-25T06:02:33;3.70;99.90
16384;DHT22;8301;51.440;6.610;2024-01-25T06:05:00;3.90;99.90
16384;DHT22;8301;51.440;6.610;2024-01-25T06:07:26;3.70;99.90
16384;DHT22;8301;51.440;6.610;2024-01-25T06:09:53;3.60;99.90
16384;DHT22;8301;51.440;6.610;2024-01-25T06:12:20;3.70;99.90
16384;DHT22;8301;51.440;6.610;2024-01-25T06:14:47;3.70;99.90
16384;DHT22;8301;51.440;6.610;2024-01-25T06:17:14;3.70;99.90
16384;DHT22;8301;51.440;6.610;2024-01-25T06:19:41;3.70;99.90
16384;DHT22;8301;51.440;6.610;2024-01-25T06:22:07;3.60;99.90
16384;DHT22;8301;51.440;6.610;2024-01-25T06:24:34;3.70;99.90
16384;DHT22;8301;51.440;6.610;2024-01-25T06:27:01;3.70;99.90
16384;DHT22;8301;51.440;6.610;2024-01-25T06:29:28;3.80;99.90
16384;DHT22;8301;51.440;6.610;2024-01-25T06:31:55;3.70;99.90
16384;DHT22;8301;51.440;6.610;2024-01-25T06:34:22;3.60;99.90
16384;DHT22;8301;51.440;6.610;2024-01-25T06:36:48;3.70;99.90
16384;DHT22;8301;51.440;6.610;2024-01-25T06:39:16;3.50;99.90
16384;DHT22;8301;51.440;6.610;2024-01-25T06:41:43;3.50;99.90
16384;DHT22;8301;51.440;6.610;2024-01-25T06:44:09;3.50;99.90
16384;DHT22;8301;51.440;6.610;2024-01-25T06:46:36;3.40;99.90
16384;DHT22;8301;51.440;6.610;2024-01-25T06:49:03;3.50;99.90
16384;DHT22;8301;51.440;6.610;2024-01-25T06:51:30;3.70;99.90
16384;DHT22;8301;51.440;6.610;2024-01-25T06:53:58;3.50;99.90
16384;DHT22;8301;51.440;6.610;2024-01-25T06:56:25;3.50;99.90
16384;DHT22;8301;51.440;6.610;2024-01-25T06:58:52;3.40;99.90
16384;DHT22;8301;51.440;6.610;2024-01-25T07:01:22;3.40;99.90
16384;DHT22;8301;51.440;6.610;2024-01-25T07:03:49;3.40;99.90
16384;DHT22;8301;51.440;6.610;2024-01-25T07:06:21;3.40;99.90
16384;DHT22;8301;51.440;6.610;2024-01-25T07:08:48;3.40;99.90
16384;DHT22;8301;51.440;6.610;2024-01-25T07:11:15;3.40;99.90
16384;DHT22;8301;51.440;6.610;2024-01-25T07:13:42;3.40;99.90
16384;DHT22;8301;51.440;6.610;2024-01-25T07:16:09;3.40;99.90
16384;DHT22;8301;51.440;6.610;2024-01-25T07:18:36;3.40;99.90
16384;DHT22;8301;51.440;6.610;2024-01-25T07:21:04;3.40;99.90
16384;DHT22;8301;51.440;6.610;2024-01-25T07:23:32;3.40;99.90
16384;DHT22;8301;51.440;6.610;2024-01-25T07:25:59;3.40;99.90
16384;DHT22;8301;51.440;6.610;2024-01-25T07:28:26;3.40;99.90
16384;DHT22;8301;51.440;6.610;2024-01-25T07:30:53;3.30;99.90
16384;DHT22;8301;51.440;6.610;2024-01-25T07:33:20;3.30;99.90
16384;DHT22;8301;51.440;6.610;2024-01-25T07:35:46;3.30;99.90
16384;DHT22;8301;51.440;6.610;2024-01-25T07:38:15;3.40;99.90
16384;DHT22;8301;51.440;6.610;2024-01-25T07:40:42;3.50;99.90
16384;DHT22;8301;51.440;6.610;2024-01-25T07:43:09;3.60;99.90
16384;DHT22;8301;51.440;6.610;2024-01-25T07:45:36;3.70;99.90
16384;DHT22;8301;51.440;6.610;2024-01-25T07:48:03;3.70;99.90
16384;DHT22;8301;51.440;6.610;2024-01-25T07:50:30;3.60;99.90
16384;DHT22;8301;51.440;6.610;2024-01-25T07:52:57;3.70;99.90
16384;DHT22;8301;51.440;6.610;2024-01-25T07:55:26;3.60;99.90
16384;DHT22;8301;51.440;6.610;2024-01-25T07:57:52;3.50;99.90
16384;DHT22;8301;51.440;6.610;2024-01-25T08:00:19;3.60;99.90
16384;DHT22;8301;51.440;6.610;2024-01-25T08:02:46;3.60;99.90
16384;DHT22;8301;51.440;6.610;2024-01-25T08:05:13;3.60;99.90
16384;DHT22;8301;51.440;6.610;2024-01-25T08:07:40;3.70;99.90
16384;DHT22;8301;51.440;6.610;2024-01-25T08:10:12;3.80;99.90
16384;DHT22;8301;51.440;6.610;2024-01-25T08:12:39;3.80;99.90
16384;DHT22;8301;51.440;6.610;2024-01-25T08:15:08;3.80;99.90
16384;DHT22;8301;51.440;6.610;2024-01-25T08:17:36;3.90;99.90
16384;DHT22;8301;51.440;6.610;2024-01-25T08:20:03;4.00;99.90
16384;DHT22;8301;51.440;6.610;2024-01-25T08:22:32;4.00;99.90
16384;DHT22;8301;51.440;6.610;2024-01-25T08:24:59;4.10;99.90
16384;DHT22;8301;51.440;6.610;2024-01-25T08:27:26;4.10;99.90
16384;DHT22;8301;51.440;6.610;2024-01-25T08:29:53;4.20;99.90
16384;DHT22;8301;51.440;6.610;2024-01-25T08:32:19;4.30;99.90
16384;DHT22;8301;51.440;6.610;2024-01-25T08:34:46;4.30;99.90
16384;DHT22;8301;51.440;6.610;2024-01-25T08:37:13;4.30;99.90
16384;DHT22;8301;51.440;6.610;2024-01-25T08:39:40;4.30;99.90
16384;DHT22;8301;51.440;6.610;2024-01-25T08:42:06;4.40;99.90
16384;DHT22;8301;51.440;6.610;2024-01-25T08:44:33;4.40;99.90
16384;DHT22;8301;51.440;6.610;2024-01-25T08:47:00;4.50;99.90
16384;DHT22;8301;51.440;6.610;2024-01-25T08:49:29;4.40;99.90
16384;DHT22;8301;51.440;6.610;2024-01-25T08:51:55;4.60;99.90
16384;DHT22;8301;51.440;6.610;2024-01-25T08:54:22;4.60;99.90
16384;DHT22;8301;51.440;6.610;2024-01-25T08:56:49;4.60;99.90
16384;DHT22;8301;51.440;6.610;2024-01-25T08:59:16;4.70;99.90
16384;DHT22;8301;51.440;6.610;2024-01-25T09:01:42;4.60;99.90
16384;DHT22;8301;51.440;6.610;2024-01-25T09:04:09;4.70;99.90
16384;DHT22;8301;51.440;6.610;2024-01-25T09:06:36;4.80;99.90
16384;DHT22;8301;51.440;6.610;2024-01-25T09:09:03;4.80;99.90
16384;DHT22;8301;51.440;6.610;2024-01-25T09:11:31;4.80;99.90
16384;DHT22;8301;51.440;6.610;2024-01-25T09:13:58;4.80;99.90
16384;DHT22;8301;51.440;6.610;2024-01-25T09:16:24;4.80;99.90
16384;DHT22;8301;51.440;6.610;2024-01-25T09:18:51;4.90;99.90
16384;DHT22;8301;51.440;6.610;2024-01-25T09:21:18;4.90;99.90
16384;DHT22;8301;51.440;6.610;2024-01-25T09:23:45;4.90;99.90
16384;DHT22;8301;51.440;6.610;2024-01-25T09:26:11;4.90;99.90
16384;DHT22;8301;51.440;6.610;2024-01-25T09:28:38;5.00;99.90
16384;DHT22;8301;51.440;6.610;2024-01-25T09:31:05;5.10;99.90
16384;DHT22;8301;51.440;6.610;2024-01-25T09:33:32;5.10;99.90
16384;DHT22;8301;51.440;6.610;2024-01-25T09:35:59;5.10;99.90
16384;DHT22;8301;51.440;6.610;2024-01-25T09:38:26;5.10;99.90
16384;DHT22;8301;51.440;6.610;2024-01-25T09:40:55;5.20;99.90
16384;DHT22;8301;51.440;6.610;2024-01-25T09:43:22;5.30;99.90
16384;DHT22;8301;51.440;6.610;2024-01-25T09:45:50;5.30;99.90
16384;DHT22;8301;51.440;6.610;2024-01-25T09:48:19;5.40;99.90
16384;DHT22;8301;51.440;6.610;2024-01-25T09:50:47;5.40;99.90
16384;DHT22;8301;51.440;6.610;2024-01-25T09:53:21;5.40;99.90
16384;DHT22;8301;51.440;6.610;2024-01-25T09:55:58;5.50;99.90
16384;DHT22;8301;51.440;6.610;2024-01-25T09:58:16;5.60;99.90
16384;DHT22;8301;51.440;6.610;2024-01-25T10:00:43;5.50;99.90
16384;DHT22;8301;51.440;6.610;2024-01-25T10:03:10;5.60;99.90
16384;DHT22;8301;51.440;6.610;2024-01-25T10:05:37;5.60;99.90
16384;DHT22;8301;51.440;6.610;2024-01-25T10:08:04;5.70;99.90
16384;DHT22;8301;51.440;6.610;2024-01-25T10:10:35;5.80;99.90
16384;DHT22;8301;51.440;6.610;2024-01-25T10:12:59;5.70;99.90
16384;DHT22;8301;51.440;6.610;2024-01-25T10:15:26;5.80;99.90
16384;DHT22;8301;51.440;6.610;2024-01-25T10:17:53;5.70;99.90
16384;DHT22;8301;51.440;6.610;2024-01-25T10:20:20;5.80;99.90
16384;DHT22;8301;51.440;6.610;2024-01-25T10:22:49;5.70;99.90
16384;DHT22;8301;51.440;6.610;2024-01-25T10:25:16;5.60;99.90
16384;DHT22;8301;51.440;6.610;2024-01-25T10:27:43;5.50;99.90
16384;DHT22;8301;51.440;6.610;2024-01-25T10:30:11;5.60;99.90
16384;DHT22;8301;51.440;6.610;2024-01-25T10:32:39;5.60;99.90
16384;DHT22;8301;51.440;6.610;2024-01-25T10:35:06;5.70;99.90
16384;DHT22;8301;51.440;6.610;2024-01-25T10:37:34;5.70;99.90
16384;DHT22;8301;51.440;6.610;2024-01-25T10:40:03;5.80;99.90
16384;DHT22;8301;51.440;6.610;2024-01-25T10:42:30;6.00;99.90
16384;DHT22;8301;51.440;6.610;2024-01-25T10:44:57;6.10;99.90
16384;DHT22;8301;51.440;6.610;2024-01-25T10:47:24;6.20;99.90
16384;DHT22;8301;51.440;6.610;2024-01-25T10:49:50;6.20;99.90
16384;DHT22;8301;51.440;6.610;2024-01-25T10:52:18;6.10;99.90
16384;DHT22;8301;51.440;6.610;2024-01-25T10:54:45;6.30;99.90
16384;DHT22;8301;51.440;6.610;2024-01-25T10:57:12;6.40;99.90
16384;DHT22;8301;51.440;6.610;2024-01-25T10:59:40;6.40;99.90
16384;DHT22;8301;51.440;6.610;2024-01-25T11:02:07;6.20;99.90
16384;DHT22;8301;51.440;6.610;2024-01-25T11:04:34;6.20;99.90
16384;DHT22;8301;51.440;6.610;2024-01-25T11:07:07;6.40;99.90
16384;DHT22;8301;51.440;6.610;2024-01-25T11:09:37;6.60;99.90
16384;DHT22;8301;51.440;6.610;2024-01-25T11:12:20;6.70;99.90
16384;DHT22;8301;51.440;6.610;2024-01-25T11:14:56;6.60;99.90
16384;DHT22;8301;51.440;6.610;2024-01-25T11:17:18;6.80;99.90
16384;DHT22;8301;51.440;6.610;2024-01-25T11:19:47;6.90;99.90
16384;DHT22;8301;51.440;6.610;2024-01-25T11:22:15;6.70;99.90
16384;DHT22;8301;51.440;6.610;2024-01-25T11:24:42;6.70;99.90
16384;DHT22;8301;51.440;6.610;2024-01-25T11:27:09;6.80;99.90
16384;DHT22;8301;51.440;6.610;2024-01-25T11:29:38;6.80;99.90
16384;DHT22;8301;51.440;6.610;2024-01-25T11:32:06;6.90;99.90
16384;DHT22;8301;51.440;6.610;2024-01-25T11:34:32;7.00;99.90
16384;DHT22;8301;51.440;6.610;2024-01-25T11:36:59;7.00;99.90
16384;DHT22;8301;51.440;6.610;2024-01-25T11:39:26;7.10;99.90
16384;DHT22;8301;51.440;6.610;2024-01-25T11:41:53;7.20;99.90
16384;DHT22;8301;51.440;6.610;2024-01-25T11:44:20;7.30;99.90
16384;DHT22;8301;51.440;6.610;2024-01-25T11:46:54;7.30;99.90
16384;DHT22;8301;51.440;6.610;2024-01-25T11:49:20;7.30;99.90
16384;DHT22;8301;51.440;6.610;2024-01-25T11:51:46;7.50;99.90
16384;DHT22;8301;51.440;6.610;2024-01-25T11:54:13;7.60;99.90
16384;DHT22;8301;51.440;6.610;2024-01-25T11:56:40;7.60;99.90
16384;DHT22;8301;51.440;6.610;2024-01-25T11:59:08;7.70;99.90
16384;DHT22;8301;51.440;6.610;2024-01-25T12:01:36;7.70;99.90
16384;DHT22;8301;51.440;6.610;2024-01-25T12:04:03;7.70;99.90
16384;DHT22;8301;51.440;6.610;2024-01-25T12:06:30;7.70;99.90
16384;DHT22;8301;51.440;6.610;2024-01-25T12:09:05;7.70;99.90
16384;DHT22;8301;51.440;6.610;2024-01-25T12:11:25;7.70;99.90
16384;DHT22;8301;51.440;6.610;2024-01-25T12:13:54;7.70;99.90
16384;DHT22;8301;51.440;6.610;2024-01-25T12:16:20;7.70;99.90
16384;DHT22;8301;51.440;6.610;2024-01-25T12:18:47;7.70;99.90
16384;DHT22;8301;51.440;6.610;2024-01-25T12:21:14;7.70;99.90
16384;DHT22;8301;51.440;6.610;2024-01-25T12:23:41;7.70;99.90
16384;DHT22;8301;51.440;6.610;2024-01-25T12:26:10;7.70;99.90
16384;DHT22;8301;51.440;6.610;2024-01-25T12:28:37;7.70;99.90
16384;DHT22;8301;51.440;6.610;2024-01-25T12:31:04;7.70;99.90
16384;DHT22;8301;51.440;6.610;2024-01-25T12:33:32;7.80;99.90
16384;DHT22;8301;51.440;6.610;2024-01-25T12:35:59;7.80;99.90
16384;DHT22;8301;51.440;6.610;2024-01-25T12:38:26;7.80;99.90
16384;DHT22;8301;51.440;6.610;2024-01-25T12:40:55;7.90;99.90
16384;DHT22;8301;51.440;6.610;2024-01-25T12:43:22;7.90;99.90
16384;DHT22;8301;51.440;6.610;2024-01-25T12:45:49;8.00;99.90
16384;DHT22;8301;51.440;6.610;2024-01-25T12:48:16;8.10;99.90
16384;DHT22;8301;51.440;6.610;2024-01-25T12:50:43;8.00;99.90
16384;DHT22;8301;51.440;6.610;2024-01-25T12:53:10;7.90;99.90
16384;DHT22;8301;51.440;6.610;2024-01-25T12:55:38;8.00;99.90
16384;DHT22;8301;51.440;6.610;2024-01-25T12:58:06;8.00;99.90
16384;DHT22;8301;51.440;6.610;2024-01-25T13:00:32;7.90;99.90
16384;DHT22;8301;51.440;6.610;2024-01-25T13:02:59;7.90;99.90
16384;DHT22;8301;51.440;6.610;2024-01-25T13:05:29;8.00;99.90
16384;DHT22;8301;51.440;6.610;2024-01-25T13:07:58;7.90;99.90
16384;DHT22;8301;51.440;6.610;2024-01-25T13:10:25;8.00;99.90
16384;DHT22;8301;51.440;6.610;2024-01-25T13:12:52;7.90;99.90
16384;DHT22;8301;51.440;6.610;2024-01-25T13:15:18;7.90;99.90
16384;DHT22;8301;51.440;6.610;2024-01-25T13:17:46;7.90;99.90
16384;DHT22;8301;51.440;6.610;2024-01-25T13:20:13;7.90;99.90
16384;DHT22;8301;51.440;6.610;2024-01-25T13:22:39;7.90;99.90
16384;DHT22;8301;51.440;6.610;2024-01-25T13:25:06;7.90;99.90
16384;DHT22;8301;51.440;6.610;2024-01-25T13:27:35;8.00;99.90
16384;DHT22;8301;51.440;6.610;2024-01-25T13:30:02;7.90;99.90
16384;DHT22;8301;51.440;6.610;2024-01-25T13:32:30;7.80;99.90
16384;DHT22;8301;51.440;6.610;2024-01-25T13:34:57;7.90;99.90
16384;DHT22;8301;51.440;6.610;2024-01-25T13:37:24;8.00;99.90
16384;DHT22;8301;51.440;6.610;2024-01-25T13:39:51;8.10;99.90
16384;DHT22;8301;51.440;6.610;2024-01-25T13:42:17;7.90;99.90
16384;DHT22;8301;51.440;6.610;2024-01-25T13:44:44;7.90;99.90
16384;DHT22;8301;51.440;6.610;2024-01-25T13:47:11;8.00;99.90
16384;DHT22;8301;51.440;6.610;2024-01-25T13:49:38;8.00;99.90
16384;DHT22;8301;51.440;6.610;2024-01-25T13:52:05;8.00;99.90
16384;DHT22;8301;51.440;6.610;2024-01-25T13:54:32;8.00;99.90
16384;DHT22;8301;51.440;6.610;2024-01-25T13:57:00;8.00;99.90
16384;DHT22;8301;51.440;6.610;2024-01-25T13:59:27;8.10;99.90
16384;DHT22;8301;51.440;6.610;2024-01-25T14:01:53;8.20;99.90
16384;DHT22;8301;51.440;6.610;2024-01-25T14:04:20;8.10;99.90
16384;DHT22;8301;51.440;6.610;2024-01-25T14:06:47;8.20;99.90
16384;DHT22;8301;51.440;6.610;2024-01-25T14:09:14;8.20;99.90
16384;DHT22;8301;51.440;6.610;2024-01-25T14:11:40;8.30;99.90
16384;DHT22;8301;51.440;6.610;2024-01-25T14:14:07;8.30;99.90
16384;DHT22;8301;51.440;6.610;2024-01-25T14:16:34;8.30;99.90
16384;DHT22;8301;51.440;6.610;2024-01-25T14:19:10;8.40;99.90
16384;DHT22;8301;51.440;6.610;2024-01-25T14:21:37;8.40;99.90
16384;DHT22;8301;51.440;6.610;2024-01-25T14:24:03;8.40;99.90
16384;DHT22;8301;51.440;6.610;2024-01-25T14:26:30;8.50;99.90
16384;DHT22;8301;51.440;6.610;2024-01-25T14:28:57;8.50;99.90
16384;DHT22;8301;51.440;6.610;2024-01-25T14:31:24;8.50;99.90
16384;DHT22;8301;51.440;6.610;2024-01-25T14:33:51;8.50;99.90
16384;DHT22;8301;51.440;6.610;2024-01-25T14:36:17;8.50;99.90
16384;DHT22;8301;51.440;6.610;2024-01-25T14:38:45;8.50;99.90
16384;DHT22;8301;51.440;6.610;2024-01-25T14:41:12;8.50;99.90
16384;DHT22;8301;51.440;6.610;2024-01-25T14:43:39;8.50;99.90
16384;DHT22;8301;51.440;6.610;2024-01-25T14:46:07;8.60;99.90
16384;DHT22;8301;51.440;6.610;2024-01-25T14:48:35;8.60;99.90
16384;DHT22;8301;51.440;6.610;2024-01-25T14:51:01;8.60;99.90
16384;DHT22;8301;51.440;6.610;2024-01-25T14:53:29;8.60;99.90
16384;DHT22;8301;51.440;6.610;2024-01-25T14:55:56;8.60;99.90
16384;DHT22;8301;51.440;6.610;2024-01-25T14:58:22;8.60;99.90
16384;DHT22;8301;51.440;6.610;2024-01-25T15:00:50;8.60;99.90
16384;DHT22;8301;51.440;6.610;2024-01-25T15:03:17;8.60;99.90
16384;DHT22;8301;51.440;6.610;2024-01-25T15:05:44;8.60;99.90
16384;DHT22;8301;51.440;6.610;2024-01-25T15:08:11;8.60;99.90
16384;DHT22;8301;51.440;6.610;2024-01-25T15:10:37;8.60;99.90
16384;DHT22;8301;51.440;6.610;2024-01-25T15:13:04;8.60;99.90
16384;DHT22;8301;51.440;6.610;2024-01-25T15:15:31;8.60;99.90
16384;DHT22;8301;51.440;6.610;2024-01-25T15:17:59;8.60;99.90
16384;DHT22;8301;51.440;6.610;2024-01-25T15:20:26;8.60;99.90
16384;DHT22;8301;51.440;6.610;2024-01-25T15:22:54;8.60;99.90
16384;DHT22;8301;51.440;6.610;2024-01-25T15:25:22;8.60;99.90
16384;DHT22;8301;51.440;6.610;2024-01-25T15:27:50;8.50;99.90
16384;DHT22;8301;51.440;6.610;2024-01-25T15:30:17;8.60;99.90
16384;DHT22;8301;51.440;6.610;2024-01-25T15:32:44;8.50;99.90
16384;DHT22;8301;51.440;6.610;2024-01-25T15:35:12;8.50;99.90
16384;DHT22;8301;51.440;6.610;2024-01-25T15:37:39;8.50;99.90
16384;DHT22;8301;51.440;6.610;2024-01-25T15:40:07;8.50;99.90
16384;DHT22;8301;51.440;6.610;2024-01-25T15:42:36;8.50;99.90
16384;DHT22;8301;51.440;6.610;2024-01-25T15:45:04;8.50;99.90
16384;DHT22;8301;51.440;6.610;2024-01-25T15:47:31;8.50;99.90
16384;DHT22;8301;51.440;6.610;2024-01-25T15:49:58;8.50;99.90
16384;DHT22;8301;51.440;6.610;2024-01-25T15:52:25;8.50;99.90
16384;DHT22;8301;51.440;6.610;2024-01-25T15:54:52;8.50;99.90
16384;DHT22;8301;51.440;6.610;2024-01-25T15:57:18;8.40;99.90
16384;DHT22;8301;51.440;6.610;2024-01-25T15:59:45;8.40;99.90
16384;DHT22;8301;51.440;6.610;2024-01-25T16:02:13;8.50;99.90